This is the latest recevied weather packets stored in our database for station/object N0EDB-13. If no packets are shown the sender has not sent any weather packets the latest 10 day(s).
| Time | Temp. | Humidity | Pressure | Rain* | Wind** | Luminosity | Snow |
|---|---|---|---|---|---|---|---|
| 1777753408 | 22.22° C | 17% | 1472.5 hPa | 0 mm | - | 940 W/m² | - |
| 1777753107 | 22.78° C | 17% | 1472.4 hPa | 0 mm | - | 947 W/m² | - |
| 1777752806 | 22.78° C | 17% | 1472.3 hPa | 0 mm | - | 957 W/m² | - |
| 1777752506 | 22.22° C | 17% | 1472.8 hPa | 0 mm | - | 962 W/m² | - |
| 1777752205 | 22.22° C | 17% | 1473.3 hPa | 0 mm | - | 969 W/m² | - |
| 1777751903 | 22.22° C | 17% | 1473.9 hPa | 0 mm | - | 976 W/m² | - |
| 1777751602 | 21.67° C | 17% | 1475.1 hPa | 0 mm | - | 979 W/m² | - |
| 1777751302 | 21.67° C | 17% | 1475.5 hPa | 0 mm | - | 985 W/m² | - |
| 1777751001 | 21.67° C | 17% | 1476 hPa | 0 mm | - | 991 W/m² | - |
| 1777750700 | 21.11° C | 17% | 1477.3 hPa | 0 mm | - | 993 W/m² | - |
| 1777750399 | 20.56° C | 19% | 1478.2 hPa | 0 mm | - | 998 W/m² | - |
| 1777750099 | 20.56° C | 17% | 1478.4 hPa | 0 mm | - | 999 W/m² | - |
| 1777749798 | 20.56° C | 17% | 1478.2 hPa | 0 mm | - | 999 W/m² | - |
| 1777749497 | 21.11° C | 17% | 1478 hPa | 0 mm | - | 999 W/m² | - |
| 1777749197 | 20.56° C | 18% | 1479.3 hPa | 0 mm | - | 999 W/m² | - |
| 1777748896 | 20° C | 18% | 1479.9 hPa | 0 mm | - | 999 W/m² | - |
| 1777748595 | 20° C | 19% | 1480.9 hPa | 0 mm | - | 999 W/m² | - |
| 1777748295 | 20° C | 18% | 1480.6 hPa | 0 mm | - | 999 W/m² | - |
| 1777747994 | 20° C | 18% | 1481.2 hPa | 0 mm | - | 999 W/m² | - |
| 1777747694 | 20° C | 18% | 1481.6 hPa | 0 mm | - | 999 W/m² | - |
| 1777747393 | 19.44° C | 18% | 1482.1 hPa | 0 mm | - | 999 W/m² | - |
| 1777747092 | 19.44° C | 18% | 1482.8 hPa | 0 mm | - | 999 W/m² | - |
| 1777746792 | 19.44° C | 18% | 1483.1 hPa | 0 mm | - | 999 W/m² | - |
| 1777746491 | 20° C | 18% | 1481.9 hPa | 0 mm | - | 999 W/m² | - |
| 1777746190 | 20° C | 18% | 1481 hPa | 0 mm | - | 999 W/m² | - |
* Rain latest hour (hover to see other rain measurements)
** Current wind speed in m/s (hover to see current wind gust speed)